createdAt,value
2018-03-04T00:01:54.416Z,59.65
2018-03-04T00:04:22.424Z,58.31
2018-03-04T00:06:50.390Z,59.51
2018-03-04T00:09:18.477Z,60.30
2018-03-04T00:11:46.321Z,61.06
2018-03-04T00:14:14.310Z,60.85
2018-03-04T00:16:42.225Z,59.63
2018-03-04T00:19:10.154Z,61.07
2018-03-04T00:21:38.058Z,60.02
2018-03-04T00:24:06.531Z,60.51
2018-03-04T00:26:34.394Z,59.24
2018-03-04T00:29:02.377Z,59.75
2018-03-04T00:31:30.363Z,60.28
2018-03-04T00:33:58.284Z,60.62
2018-03-04T00:36:26.303Z,59.42
2018-03-04T00:38:54.198Z,58.96
2018-03-04T00:41:22.130Z,58.92
2018-03-04T00:43:50.061Z,58.99
2018-03-04T00:46:18.034Z,58.79
2018-03-04T00:48:45.983Z,58.28
2018-03-04T00:51:13.929Z,58.84
2018-03-04T00:53:41.858Z,59.36
2018-03-04T00:56:09.791Z,60.37
2018-03-04T00:58:37.753Z,60.87
2018-03-04T01:01:05.724Z,60.80
2018-03-04T01:03:33.737Z,61.28
2018-03-04T01:06:01.674Z,61.74
2018-03-04T01:08:29.584Z,60.93
2018-03-04T01:10:57.650Z,60.06
2018-03-04T01:13:25.663Z,59.10
2018-03-04T01:15:53.578Z,60.50
2018-03-04T01:18:21.547Z,60.49
2018-03-04T01:20:49.471Z,60.50
2018-03-04T01:23:17.452Z,59.84
2018-03-04T01:25:45.627Z,59.01
2018-03-04T01:28:13.639Z,62.04
2018-03-04T01:30:41.570Z,60.95
2018-03-04T01:33:09.549Z,62.68
2018-03-04T01:35:37.524Z,60.16
2018-03-04T01:38:05.457Z,62.46
2018-03-04T01:40:33.582Z,63.60
2018-03-04T01:43:01.660Z,61.92
2018-03-04T01:45:29.639Z,62.26
2018-03-04T01:47:57.620Z,62.64
2018-03-04T01:50:25.597Z,63.25
2018-03-04T01:52:53.530Z,62.24
2018-03-04T01:55:21.457Z,65.05
2018-03-04T01:57:49.377Z,65.02
2018-03-04T02:00:17.452Z,68.17
2018-03-04T02:02:45.392Z,66.53
2018-03-04T02:05:13.302Z,65.00
2018-03-04T02:07:41.398Z,64.31
2018-03-04T02:10:09.321Z,62.79
2018-03-04T02:12:37.234Z,62.67
2018-03-04T02:15:05.204Z,63.27
2018-03-04T02:17:33.172Z,61.14
2018-03-04T02:20:01.178Z,63.15
2018-03-04T02:22:29.166Z,64.38
2018-03-04T02:24:57.152Z,63.10
2018-03-04T02:27:25.488Z,64.60
2018-03-04T02:29:53.429Z,64.30
2018-03-04T02:32:21.353Z,63.32
2018-03-04T02:34:49.279Z,62.84
2018-03-04T02:37:17.237Z,62.75
2018-03-04T02:39:45.237Z,64.86
2018-03-04T02:42:13.178Z,63.79
2018-03-04T02:44:41.133Z,63.89
2018-03-04T02:47:09.101Z,64.53
2018-03-04T02:49:37.054Z,67.86
2018-03-04T02:52:04.912Z,67.04
2018-03-04T02:54:32.789Z,67.60
2018-03-04T02:57:00.740Z,65.61
2018-03-04T02:59:28.677Z,64.73
2018-03-04T03:01:56.646Z,63.89
2018-03-04T03:04:24.593Z,66.71
2018-03-04T03:06:52.607Z,66.70
2018-03-04T03:09:20.548Z,65.54
2018-03-04T03:11:48.529Z,64.19
2018-03-04T03:14:16.510Z,66.41
2018-03-04T03:16:44.446Z,66.19
2018-03-04T03:19:12.379Z,65.49
2018-03-04T03:21:40.387Z,66.46
2018-03-04T03:24:08.299Z,65.27
2018-03-04T03:26:36.266Z,68.77
2018-03-04T03:29:04.586Z,68.26
2018-03-04T03:31:32.484Z,66.99
2018-03-04T03:34:00.468Z,65.87
2018-03-04T03:36:28.416Z,66.45
2018-03-04T03:38:56.386Z,70.37
2018-03-04T03:41:24.341Z,67.53
2018-03-04T03:43:52.250Z,69.28
2018-03-04T03:46:20.234Z,67.39
2018-03-04T03:48:48.152Z,67.07
2018-03-04T03:51:16.075Z,66.93
2018-03-04T03:53:44.026Z,65.59
2018-03-04T03:56:11.950Z,66.10
2018-03-04T03:58:39.905Z,65.86
2018-03-04T04:01:07.853Z,65.65
2018-03-04T04:03:35.812Z,64.58
2018-03-04T04:06:03.791Z,63.71
2018-03-04T04:08:31.741Z,64.87
2018-03-04T04:10:59.722Z,64.21
2018-03-04T04:13:27.684Z,65.71
2018-03-04T04:15:55.653Z,65.58
2018-03-04T04:18:23.655Z,65.98
2018-03-04T04:20:51.674Z,67.16
2018-03-04T04:23:19.575Z,67.04
2018-03-04T04:25:47.472Z,69.25
2018-03-04T04:28:15.392Z,68.53
2018-03-04T04:30:43.892Z,68.21
2018-03-04T04:33:11.857Z,66.84
2018-03-04T04:35:39.797Z,64.95
2018-03-04T04:38:07.762Z,64.22
2018-03-04T04:40:35.681Z,66.45
2018-03-04T04:43:03.615Z,66.88
2018-03-04T04:45:31.581Z,65.25
2018-03-04T04:47:59.537Z,65.98
2018-03-04T04:50:27.529Z,65.95
2018-03-04T04:52:55.489Z,66.38
2018-03-04T04:55:23.495Z,64.36
2018-03-04T04:57:51.425Z,67.65
2018-03-04T05:00:19.393Z,66.92
2018-03-04T05:02:47.322Z,65.44
2018-03-04T05:05:15.268Z,67.64
2018-03-04T05:07:43.209Z,66.03
2018-03-04T05:10:11.140Z,69.25
2018-03-04T05:12:39.054Z,68.04
2018-03-04T05:15:07.028Z,68.16
2018-03-04T05:17:35.034Z,68.90
2018-03-04T05:20:03.124Z,69.88
2018-03-04T05:22:31.085Z,70.13
2018-03-04T05:24:59.084Z,70.54
2018-03-04T05:27:27.045Z,69.15
2018-03-04T05:29:54.974Z,67.14
2018-03-04T05:32:23.444Z,68.65
2018-03-04T05:34:51.472Z,67.91
2018-03-04T05:37:19.406Z,66.19
2018-03-04T05:39:47.549Z,67.44
2018-03-04T05:42:15.469Z,66.77
2018-03-04T05:44:43.438Z,67.07
2018-03-04T05:47:11.418Z,66.49
2018-03-04T05:49:39.374Z,66.34
2018-03-04T05:52:07.371Z,64.82
2018-03-04T05:54:35.295Z,65.15
2018-03-04T05:57:03.213Z,63.94
2018-03-04T05:59:31.228Z,65.57
2018-03-04T06:01:59.213Z,65.97
2018-03-04T06:04:27.085Z,66.86
2018-03-04T06:06:56.063Z,66.87
2018-03-04T06:09:24.045Z,66.74
2018-03-04T06:11:51.984Z,66.65
2018-03-04T06:14:19.813Z,66.66
2018-03-04T06:16:47.805Z,67.16
2018-03-04T06:19:15.778Z,69.43
2018-03-04T06:21:43.896Z,69.53
2018-03-04T06:24:11.825Z,67.26
2018-03-04T06:26:39.767Z,69.52
2018-03-04T06:29:07.721Z,69.07
2018-03-04T06:31:35.638Z,68.13
2018-03-04T06:34:04.109Z,66.36
2018-03-04T06:36:32.125Z,65.53
2018-03-04T06:39:00.055Z,65.17
2018-03-04T06:41:27.968Z,64.89
2018-03-04T06:43:55.969Z,65.46
2018-03-04T06:46:23.940Z,65.41
2018-03-04T06:48:51.882Z,65.42
2018-03-04T06:51:19.859Z,66.41
2018-03-04T06:53:47.865Z,69.26
2018-03-04T06:56:15.844Z,68.38
2018-03-04T06:58:43.806Z,65.97
2018-03-04T07:01:11.768Z,66.00
2018-03-04T07:03:39.814Z,67.29
2018-03-04T07:06:07.746Z,66.61
2018-03-04T07:08:35.764Z,65.11
2018-03-04T07:11:03.716Z,65.27
2018-03-04T07:13:31.703Z,65.20
2018-03-04T07:15:59.686Z,65.36
2018-03-04T07:18:27.746Z,65.20
2018-03-04T07:20:55.774Z,65.07
2018-03-04T07:23:23.757Z,64.27
2018-03-04T07:25:51.677Z,61.83
2018-03-04T07:28:19.670Z,61.69
2018-03-04T07:30:47.651Z,63.68
2018-03-04T07:33:15.606Z,62.46
2018-03-04T07:35:43.989Z,62.53
2018-03-04T07:38:11.901Z,61.63
2018-03-04T07:40:39.897Z,63.37
2018-03-04T07:43:07.857Z,66.76
2018-03-04T07:45:35.873Z,65.26
2018-03-04T07:48:03.836Z,64.94
2018-03-04T07:50:31.804Z,66.63
2018-03-04T07:52:59.741Z,69.56
2018-03-04T07:55:27.690Z,69.76
2018-03-04T07:57:55.653Z,67.05
2018-03-04T08:00:23.665Z,68.82
2018-03-04T08:02:51.638Z,66.31
2018-03-04T08:05:19.594Z,67.26
2018-03-04T08:07:47.566Z,66.53
2018-03-04T08:10:15.598Z,67.04
2018-03-04T08:12:43.554Z,65.72
2018-03-04T08:15:11.518Z,65.28
2018-03-04T08:17:39.534Z,64.32
2018-03-04T08:20:07.481Z,66.16
2018-03-04T08:22:35.487Z,66.89
2018-03-04T08:25:15.086Z,67.88
2018-03-04T08:27:54.946Z,66.78
2018-03-04T08:30:23.658Z,66.35
2018-03-04T08:32:51.722Z,65.63
2018-03-04T08:35:19.718Z,66.58
2018-03-04T08:37:48.084Z,67.03
2018-03-04T08:40:16.073Z,64.82
2018-03-04T08:42:44.097Z,63.69
2018-03-04T08:45:12.575Z,65.52
2018-03-04T08:47:40.513Z,64.75
2018-03-04T08:50:08.461Z,62.96
2018-03-04T08:52:36.435Z,64.13
2018-03-04T08:55:04.367Z,65.67
2018-03-04T08:57:32.341Z,65.94
2018-03-04T09:00:00.236Z,66.11
2018-03-04T09:02:28.197Z,65.63
2018-03-04T09:04:56.126Z,65.24
2018-03-04T09:07:24.169Z,64.96
2018-03-04T09:09:52.137Z,64.84
2018-03-04T09:12:20.077Z,64.29
2018-03-04T09:14:48.436Z,63.73
2018-03-04T09:17:17.116Z,63.94
2018-03-04T09:19:45.272Z,63.40
2018-03-04T09:22:13.864Z,63.70
2018-03-04T09:24:42.540Z,64.67
2018-03-04T09:27:11.132Z,65.84
2018-03-04T09:29:39.511Z,65.06
2018-03-04T09:32:08.101Z,64.71
2018-03-04T09:34:36.616Z,63.11
2018-03-04T09:37:05.166Z,63.34
2018-03-04T09:39:33.869Z,62.68
2018-03-04T09:42:02.328Z,62.36
2018-03-04T09:44:30.636Z,62.29
2018-03-04T09:46:58.583Z,59.80
2018-03-04T09:49:26.484Z,60.45
2018-03-04T09:51:54.452Z,59.76
2018-03-04T09:54:23.517Z,60.37
2018-03-04T09:56:52.933Z,58.11
2018-03-04T09:59:20.895Z,56.28
2018-03-04T10:01:48.817Z,55.06
2018-03-04T10:04:16.821Z,56.45
2018-03-04T10:06:44.750Z,51.99
2018-03-04T10:09:12.656Z,46.72
2018-03-04T10:11:40.699Z,48.03
2018-03-04T10:14:08.707Z,46.71
2018-03-04T10:16:36.647Z,44.02
2018-03-04T10:19:04.574Z,46.10
2018-03-04T10:21:32.537Z,43.34
2018-03-04T10:24:00.478Z,41.48
2018-03-04T10:26:29.393Z,38.01
2018-03-04T10:28:57.390Z,38.68
2018-03-04T10:31:25.436Z,39.38
2018-03-04T10:33:53.382Z,35.67
2018-03-04T10:36:21.342Z,36.37
2018-03-04T10:38:49.292Z,38.22
2018-03-04T10:41:17.451Z,36.15
2018-03-04T10:43:45.428Z,31.45
2018-03-04T10:46:13.386Z,30.99
2018-03-04T10:48:41.371Z,32.61
2018-03-04T10:51:09.378Z,32.84
2018-03-04T10:53:37.225Z,34.96
2018-03-04T10:56:05.101Z,34.43
2018-03-04T10:58:33.053Z,35.26
2018-03-04T11:01:14.922Z,31.31
2018-03-04T11:03:42.867Z,32.00
2018-03-04T11:06:10.947Z,34.60
2018-03-04T11:08:39.196Z,31.36
2018-03-04T11:11:07.150Z,32.91
2018-03-04T11:13:35.090Z,34.95
2018-03-04T11:16:03.051Z,32.56
2018-03-04T11:18:31.058Z,32.91
2018-03-04T11:20:58.982Z,33.38
2018-03-04T11:23:26.935Z,36.19
2018-03-04T11:25:54.919Z,34.95
2018-03-04T11:28:22.857Z,33.69
2018-03-04T11:30:50.802Z,36.12
2018-03-04T11:33:18.796Z,32.93
2018-03-04T11:35:46.728Z,28.96
2018-03-04T11:38:14.662Z,34.33
2018-03-04T11:40:42.664Z,31.20
2018-03-04T11:43:11.104Z,32.34
2018-03-04T11:45:38.954Z,33.72
2018-03-04T11:48:06.912Z,32.55
2018-03-04T11:50:34.806Z,28.04
2018-03-04T11:53:02.753Z,29.78
2018-03-04T11:55:30.728Z,33.22
2018-03-04T11:57:58.715Z,33.91
2018-03-04T12:00:26.658Z,35.24
2018-03-04T12:02:54.623Z,34.32
2018-03-04T12:05:22.554Z,31.50
2018-03-04T12:07:50.514Z,29.38
2018-03-04T12:10:18.436Z,31.03
2018-03-04T12:12:46.421Z,30.24
2018-03-04T12:15:14.467Z,28.34
2018-03-04T12:17:42.515Z,30.70
2018-03-04T12:20:10.482Z,29.47
2018-03-04T12:22:38.407Z,28.13
2018-03-04T12:25:06.297Z,28.79
2018-03-04T12:27:34.178Z,29.99
2018-03-04T12:30:02.127Z,30.50
2018-03-04T12:32:30.127Z,28.81
2018-03-04T12:34:58.097Z,29.44
2018-03-04T12:37:26.093Z,28.65
2018-03-04T12:39:54.060Z,29.76
2018-03-04T12:42:21.933Z,29.39
2018-03-04T12:44:50.268Z,28.32
2018-03-04T12:47:18.135Z,28.57
2018-03-04T12:49:46.130Z,30.64
2018-03-04T12:52:14.040Z,30.22
2018-03-04T12:54:42.023Z,31.39
2018-03-04T12:57:10.035Z,29.24
2018-03-04T12:59:38.014Z,29.18
2018-03-04T13:02:05.998Z,29.35
2018-03-04T13:04:33.986Z,30.62
2018-03-04T13:07:01.908Z,30.48
2018-03-04T13:09:29.825Z,32.51
2018-03-04T13:11:57.810Z,33.96
2018-03-04T13:14:25.793Z,31.85
2018-03-04T13:16:53.755Z,32.88
2018-03-04T13:19:22.025Z,34.59
2018-03-04T13:21:49.945Z,34.74
2018-03-04T13:24:17.868Z,34.35
2018-03-04T13:26:45.845Z,37.47
2018-03-04T13:29:13.814Z,37.21
2018-03-04T13:31:41.799Z,36.97
2018-03-04T13:34:09.737Z,37.71
2018-03-04T13:36:37.702Z,35.92
2018-03-04T13:39:05.642Z,35.73
2018-03-04T13:41:33.583Z,35.47
2018-03-04T13:44:01.546Z,36.08
2018-03-04T13:46:29.740Z,36.47
2018-03-04T13:48:57.714Z,36.29
2018-03-04T13:51:25.663Z,39.39
2018-03-04T13:53:53.637Z,40.32
2018-03-04T13:56:21.507Z,40.71
2018-03-04T13:58:49.558Z,41.21
2018-03-04T14:01:17.538Z,41.11
2018-03-04T14:03:45.474Z,41.40
2018-03-04T14:06:13.426Z,41.34
2018-03-04T14:08:41.534Z,40.98
2018-03-04T14:11:09.502Z,39.82
2018-03-04T14:13:37.404Z,39.51
2018-03-04T14:16:05.355Z,42.33
2018-03-04T14:18:33.370Z,43.22
2018-03-04T14:21:01.420Z,44.32
2018-03-04T14:23:29.448Z,45.91
2018-03-04T14:25:57.375Z,44.89
2018-03-04T14:28:25.335Z,44.42
2018-03-04T14:30:53.288Z,44.65
2018-03-04T14:33:21.203Z,43.84
2018-03-04T14:35:49.152Z,42.24
2018-03-04T14:38:17.072Z,42.11
2018-03-04T14:40:45.043Z,41.89
2018-03-04T14:43:13.017Z,40.05
2018-03-04T14:45:40.955Z,40.24
2018-03-04T14:48:09.174Z,38.38
2018-03-04T14:50:37.133Z,38.76
2018-03-04T14:53:05.143Z,38.25
2018-03-04T14:55:33.109Z,39.33
2018-03-04T14:58:01.114Z,38.76
2018-03-04T15:00:29.162Z,39.41
2018-03-04T15:02:57.137Z,38.47
2018-03-04T15:05:25.062Z,38.85
2018-03-04T15:07:53.065Z,39.70
2018-03-04T15:10:21.088Z,40.95
2018-03-04T15:12:49.089Z,39.86
2018-03-04T15:15:17.061Z,40.69
2018-03-04T15:17:45.000Z,41.53
2018-03-04T15:20:12.944Z,40.22
2018-03-04T15:22:40.926Z,39.74
2018-03-04T15:25:08.866Z,42.57
2018-03-04T15:27:36.857Z,41.39
2018-03-04T15:30:04.802Z,41.17
2018-03-04T15:32:32.703Z,42.54
2018-03-04T15:35:00.673Z,44.17
2018-03-04T15:37:28.573Z,45.30
2018-03-04T15:39:56.425Z,46.50
2018-03-04T15:42:24.460Z,46.15
2018-03-04T15:44:52.364Z,46.84
2018-03-04T15:47:20.308Z,46.15
2018-03-04T15:49:48.535Z,45.69
2018-03-04T15:52:16.531Z,47.49
2018-03-04T15:54:44.498Z,48.25
2018-03-04T15:57:12.484Z,49.36
2018-03-04T15:59:40.402Z,49.24
2018-03-04T16:02:08.436Z,48.72
2018-03-04T16:04:36.382Z,47.66
2018-03-04T16:07:04.266Z,47.71
2018-03-04T16:09:32.263Z,50.18
2018-03-04T16:12:00.227Z,49.24
2018-03-04T16:14:28.246Z,51.66
2018-03-04T16:16:56.300Z,53.70
2018-03-04T16:19:24.597Z,54.84
2018-03-04T16:21:52.786Z,54.60
2018-03-04T16:24:21.251Z,55.00
2018-03-04T16:26:49.774Z,55.22
2018-03-04T16:29:18.316Z,55.52
2018-03-04T16:31:46.876Z,55.27
2018-03-04T16:34:14.832Z,55.33
2018-03-04T16:36:42.801Z,55.75
2018-03-04T16:39:10.665Z,56.00
2018-03-04T16:41:38.642Z,57.01
2018-03-04T16:44:06.657Z,56.48
2018-03-04T16:46:34.649Z,55.03
2018-03-04T16:49:02.597Z,56.14
2018-03-04T16:51:30.847Z,56.28
2018-03-04T16:53:58.819Z,56.89
2018-03-04T16:56:26.779Z,54.42
2018-03-04T16:58:54.697Z,53.35
2018-03-04T17:01:22.617Z,55.08
2018-03-04T17:03:50.583Z,54.66
2018-03-04T17:06:18.589Z,54.40
2018-03-04T17:08:46.554Z,55.67
2018-03-04T17:11:14.594Z,54.68
2018-03-04T17:13:42.577Z,54.12
2018-03-04T17:16:10.577Z,53.42
2018-03-04T17:18:38.567Z,55.47
2018-03-04T17:21:06.568Z,56.91
2018-03-04T17:23:34.553Z,59.19
2018-03-04T17:26:02.533Z,59.06
2018-03-04T17:28:30.541Z,58.48
2018-03-04T17:30:58.488Z,59.03
2018-03-04T17:33:26.433Z,59.31
2018-03-04T17:35:54.345Z,58.33
2018-03-04T17:38:22.306Z,57.71
2018-03-04T17:40:50.498Z,58.31
2018-03-04T17:43:18.449Z,58.42
2018-03-04T17:45:46.415Z,58.63
2018-03-04T17:48:14.377Z,58.85
2018-03-04T17:50:42.342Z,58.61
2018-03-04T17:53:10.670Z,58.70
2018-03-04T17:55:38.601Z,58.57
2018-03-04T17:58:06.593Z,57.11
2018-03-04T18:00:34.474Z,57.27
2018-03-04T18:03:02.385Z,57.98
2018-03-04T18:05:30.304Z,57.80
2018-03-04T18:07:58.297Z,59.75
2018-03-04T18:10:26.293Z,55.78
2018-03-04T18:12:54.218Z,56.57
2018-03-04T18:15:22.144Z,56.66
2018-03-04T18:17:50.199Z,58.88
2018-03-04T18:20:18.105Z,58.98
2018-03-04T18:22:45.932Z,58.24
2018-03-04T18:25:13.862Z,57.21
2018-03-04T18:27:41.821Z,57.73
2018-03-04T18:30:09.727Z,57.16
2018-03-04T18:32:37.656Z,57.35
2018-03-04T18:35:05.582Z,57.65
2018-03-04T18:37:33.453Z,57.65
2018-03-04T18:40:01.436Z,57.66
2018-03-04T18:42:29.442Z,57.65
2018-03-04T18:44:57.377Z,58.97
2018-03-04T18:47:25.342Z,57.04
2018-03-04T18:49:53.618Z,56.62
2018-03-04T18:52:21.604Z,56.92
2018-03-04T18:54:49.916Z,56.31
2018-03-04T18:57:17.856Z,55.89
2018-03-04T18:59:45.755Z,56.49
2018-03-04T19:02:13.635Z,58.28
2018-03-04T19:04:41.558Z,54.03
2018-03-04T19:07:09.523Z,52.91
2018-03-04T19:09:37.444Z,51.94
2018-03-04T19:12:05.513Z,52.73
2018-03-04T19:14:33.455Z,51.68
2018-03-04T19:17:01.407Z,52.90
2018-03-04T19:19:29.545Z,53.78
2018-03-04T19:21:58.076Z,53.56
2018-03-04T19:24:26.832Z,53.25
2018-03-04T19:26:55.222Z,54.10
2018-03-04T19:29:23.218Z,55.15
2018-03-04T19:31:51.190Z,56.81
2018-03-04T19:34:19.213Z,57.38
2018-03-04T19:36:47.174Z,55.95
2018-03-04T19:39:15.112Z,55.02
2018-03-04T19:41:43.066Z,56.74
2018-03-04T19:44:11.017Z,57.66
2018-03-04T19:46:38.926Z,59.33
2018-03-04T19:49:06.872Z,57.65
2018-03-04T19:51:34.788Z,55.34
2018-03-04T19:54:02.770Z,56.86
2018-03-04T19:56:30.894Z,59.15
2018-03-04T19:58:58.934Z,60.23
2018-03-04T20:01:26.858Z,60.63
2018-03-04T20:03:54.834Z,58.75
2018-03-04T20:06:22.752Z,59.13
2018-03-04T20:08:50.770Z,56.98
2018-03-04T20:11:18.744Z,55.94
2018-03-04T20:13:46.726Z,55.75
2018-03-04T20:16:14.659Z,56.79
2018-03-04T20:18:42.604Z,55.80
2018-03-04T20:21:10.544Z,54.53
2018-03-04T20:23:38.474Z,54.52
2018-03-04T20:26:06.389Z,54.34
2018-03-04T20:28:34.329Z,54.98
2018-03-04T20:31:02.244Z,55.13
2018-03-04T20:33:30.203Z,55.90
2018-03-04T20:35:58.180Z,55.29
2018-03-04T20:38:26.054Z,54.66
2018-03-04T20:40:54.022Z,54.99
2018-03-04T20:43:22.022Z,54.97
2018-03-04T20:45:50.079Z,55.07
2018-03-04T20:48:18.035Z,55.01
2018-03-04T20:50:45.981Z,55.32
2018-03-04T20:53:13.949Z,58.81
2018-03-04T20:55:42.623Z,59.42
2018-03-04T20:58:10.770Z,58.14
2018-03-04T21:00:38.684Z,59.40
2018-03-04T21:03:06.688Z,59.05
2018-03-04T21:05:34.625Z,57.73
2018-03-04T21:08:02.594Z,56.59
2018-03-04T21:10:30.530Z,56.36
2018-03-04T21:13:07.458Z,55.41
2018-03-04T21:15:38.270Z,54.62
2018-03-04T21:18:06.258Z,57.04
2018-03-04T21:20:34.782Z,56.71
2018-03-04T21:23:02.757Z,55.78
2018-03-04T21:25:30.773Z,55.30
2018-03-04T21:27:58.617Z,55.07
2018-03-04T21:30:26.561Z,56.94
2018-03-04T21:32:54.513Z,55.14
2018-03-04T21:35:22.472Z,54.76
2018-03-04T21:37:50.474Z,54.77
2018-03-04T21:40:18.461Z,53.55
2018-03-04T21:42:46.419Z,54.64
2018-03-04T21:45:14.377Z,53.77
2018-03-04T21:47:42.349Z,54.24
2018-03-04T21:50:10.357Z,55.47
2018-03-04T21:52:38.357Z,54.93
2018-03-04T21:55:06.298Z,55.01
2018-03-04T21:57:34.310Z,55.02
2018-03-04T22:00:02.694Z,54.60
2018-03-04T22:02:30.653Z,54.93
2018-03-04T22:04:58.593Z,57.28
2018-03-04T22:07:26.640Z,56.44
2018-03-04T22:09:54.548Z,58.00
2018-03-04T22:12:22.521Z,55.27
2018-03-04T22:14:50.515Z,55.72
2018-03-04T22:17:18.476Z,54.77
2018-03-04T22:19:46.418Z,54.52
2018-03-04T22:22:14.378Z,54.17
2018-03-04T22:24:42.317Z,54.47
2018-03-04T22:27:10.271Z,54.51
2018-03-04T22:29:38.193Z,54.43
2018-03-04T22:32:06.182Z,54.54
2018-03-04T22:34:34.253Z,58.21
2018-03-04T22:37:02.145Z,57.66
2018-03-04T22:39:30.117Z,56.59
2018-03-04T22:41:58.183Z,56.91
2018-03-04T22:44:26.185Z,56.05
2018-03-04T22:46:54.137Z,56.44
2018-03-04T22:49:22.118Z,57.08
2018-03-04T22:51:50.043Z,58.40
2018-03-04T22:54:17.990Z,58.25
2018-03-04T22:56:45.881Z,57.71
2018-03-04T22:59:13.821Z,58.27
2018-03-04T23:01:42.071Z,55.96
2018-03-04T23:04:10.061Z,56.11
2018-03-04T23:06:38.037Z,55.59
2018-03-04T23:09:06.049Z,56.84
2018-03-04T23:11:34.001Z,58.55
2018-03-04T23:14:01.926Z,58.48
2018-03-04T23:16:29.856Z,57.58
2018-03-04T23:18:57.820Z,57.93
2018-03-04T23:21:25.776Z,59.18
2018-03-04T23:23:53.688Z,58.21
2018-03-04T23:26:21.666Z,58.73
2018-03-04T23:28:49.629Z,59.17
2018-03-04T23:31:17.584Z,58.38
2018-03-04T23:33:45.655Z,56.34
2018-03-04T23:36:13.665Z,55.44
2018-03-04T23:38:41.526Z,56.70
2018-03-04T23:41:09.520Z,55.69
2018-03-04T23:43:37.460Z,55.38
2018-03-04T23:46:05.430Z,55.29
2018-03-04T23:48:33.424Z,55.20
2018-03-04T23:51:01.389Z,54.93
2018-03-04T23:53:29.369Z,55.30
2018-03-04T23:55:57.335Z,55.73
2018-03-04T23:58:25.332Z,57.01
